createdAt,value
2022-12-03T00:03:56.580Z,46.20
2022-12-03T00:08:59.823Z,43.50
2022-12-03T00:14:02.929Z,41.10
2022-12-03T00:19:07.834Z,59.80
2022-12-03T00:24:10.997Z,47.10
2022-12-03T00:29:14.309Z,58.20
2022-12-03T00:34:17.521Z,49.70
2022-12-03T00:39:20.527Z,60.50
2022-12-03T00:44:23.642Z,51.00
2022-12-03T00:49:26.645Z,56.20
2022-12-03T00:54:32.142Z,64.60
2022-12-03T00:59:35.824Z,41.20
2022-12-03T01:04:39.017Z,44.30
2022-12-03T01:09:42.254Z,48.70
2022-12-03T01:14:46.081Z,53.20
2022-12-03T01:19:49.198Z,56.50
2022-12-03T01:24:52.623Z,44.90
2022-12-03T01:29:55.912Z,53.20
2022-12-03T01:34:59.025Z,54.70
2022-12-03T01:40:02.337Z,57.60
2022-12-03T01:45:06.435Z,67.10
2022-12-03T01:50:18.791Z,51.90
2022-12-03T01:55:24.520Z,58.10
2022-12-03T02:00:29.007Z,56.40
2022-12-03T02:05:33.860Z,58.60
2022-12-03T02:10:38.391Z,50.30
2022-12-03T02:15:41.567Z,49.80
2022-12-03T02:21:07.857Z,56.10
2022-12-03T02:26:11.170Z,59.20
2022-12-03T02:31:14.307Z,55.00
2022-12-03T02:36:17.615Z,50.30
2022-12-03T02:41:40.362Z,53.50
2022-12-03T02:46:43.771Z,49.70
2022-12-03T02:51:46.991Z,54.30
2022-12-03T02:56:50.303Z,56.90
2022-12-03T03:01:53.574Z,64.10
2022-12-03T03:06:56.826Z,52.80
2022-12-03T03:12:00.362Z,41.30
2022-12-03T03:17:04.069Z,43.90
2022-12-03T03:22:07.178Z,51.10
2022-12-03T03:27:10.358Z,40.10
2022-12-03T03:32:13.641Z,38.70
2022-12-03T03:37:17.015Z,39.40
2022-12-03T03:42:20.228Z,39.70
2022-12-03T03:47:24.013Z,43.00
2022-12-03T03:52:27.059Z,31.10
2022-12-03T03:57:29.962Z,39.50
2022-12-03T04:02:33.379Z,45.90
2022-12-03T04:07:36.432Z,32.10
2022-12-03T04:12:57.618Z,38.30
2022-12-03T04:18:19.056Z,40.60
2022-12-03T04:23:25.007Z,45.30
2022-12-03T04:28:50.770Z,43.80
2022-12-03T04:34:12.633Z,42.20
2022-12-03T04:39:15.734Z,42.20
2022-12-03T04:44:35.836Z,42.20
2022-12-03T04:49:44.575Z,50.50
2022-12-03T04:54:47.685Z,40.70
2022-12-03T04:59:50.793Z,46.60
2022-12-03T05:04:54.056Z,48.10
2022-12-03T05:09:57.320Z,44.30
2022-12-03T05:15:00.326Z,55.00
2022-12-03T05:20:22.712Z,49.00
2022-12-03T05:25:25.692Z,50.30
2022-12-03T05:30:28.760Z,47.60
2022-12-03T05:35:32.012Z,48.90
2022-12-03T05:40:35.738Z,46.30
2022-12-03T05:45:43.506Z,55.40
2022-12-03T05:50:47.043Z,59.80
2022-12-03T05:55:50.081Z,56.40
2022-12-03T06:00:53.094Z,45.40
2022-12-03T06:05:56.092Z,54.70
2022-12-03T06:10:59.103Z,49.10
2022-12-03T06:16:02.208Z,33.20
2022-12-03T06:21:05.416Z,48.40
2022-12-03T06:26:08.526Z,55.00
2022-12-03T06:31:11.597Z,57.10
2022-12-03T06:36:17.809Z,45.70
2022-12-03T06:41:24.508Z,52.80
2022-12-03T06:46:27.690Z,48.80
2022-12-03T06:51:30.939Z,50.70
2022-12-03T06:56:38.004Z,50.00
2022-12-03T07:01:47.053Z,48.50
2022-12-03T07:06:50.090Z,44.90
2022-12-03T07:11:53.202Z,45.30
2022-12-03T07:16:56.305Z,51.70
2022-12-03T07:21:59.412Z,46.60
2022-12-03T07:27:02.724Z,42.40
2022-12-03T07:32:06.144Z,43.80
2022-12-03T07:37:09.354Z,48.30
2022-12-03T07:42:12.360Z,50.20
2022-12-03T07:47:15.572Z,47.90
2022-12-03T07:52:18.687Z,55.70
2022-12-03T07:57:21.801Z,43.50
2022-12-03T08:02:25.130Z,47.10
2022-12-03T08:07:28.803Z,42.80
2022-12-03T08:12:41.869Z,47.00
2022-12-03T08:17:47.705Z,61.20
2022-12-03T08:22:52.798Z,50.50
2022-12-03T08:28:00.816Z,47.60
2022-12-03T08:33:17.195Z,56.50
2022-12-03T08:38:23.706Z,47.50
2022-12-03T08:43:28.606Z,58.10
2022-12-03T08:48:40.691Z,48.60
2022-12-03T08:54:01.582Z,49.20
2022-12-03T08:59:26.630Z,48.80
2022-12-03T09:04:46.455Z,69.30
2022-12-03T09:09:49.662Z,46.80
2022-12-03T09:14:53.000Z,47.50
2022-12-03T09:19:56.387Z,41.80
2022-12-03T09:24:59.605Z,52.60
2022-12-03T09:30:03.125Z,54.80
2022-12-03T09:35:07.002Z,37.40
2022-12-03T09:40:10.853Z,39.00
2022-12-03T09:45:16.038Z,39.30
2022-12-03T09:50:24.571Z,56.20
2022-12-03T09:55:29.043Z,28.50
2022-12-03T10:00:32.011Z,46.00
2022-12-03T10:05:35.321Z,41.30
2022-12-03T10:10:40.557Z,46.10
2022-12-03T10:15:43.606Z,45.00
2022-12-03T10:20:47.209Z,44.90
2022-12-03T10:25:57.999Z,34.90
2022-12-03T10:31:03.104Z,50.10
2022-12-03T10:36:18.550Z,40.70
2022-12-03T10:41:24.635Z,48.10
2022-12-03T10:46:27.703Z,51.30
2022-12-03T10:51:31.155Z,45.70
2022-12-03T10:56:34.160Z,48.20
2022-12-03T11:01:37.198Z,37.90
2022-12-03T11:06:40.274Z,41.60
2022-12-03T11:11:43.489Z,40.20
2022-12-03T11:16:46.600Z,48.00
2022-12-03T11:22:05.257Z,42.50
2022-12-03T11:27:11.264Z,44.60
2022-12-03T11:32:39.849Z,44.40
2022-12-03T11:37:42.859Z,51.50
2022-12-03T11:42:48.134Z,42.20
2022-12-03T11:48:05.151Z,45.90
2022-12-03T11:53:08.363Z,39.50
2022-12-03T11:58:28.210Z,49.70
2022-12-03T12:03:36.834Z,48.10
2022-12-03T12:08:54.859Z,45.60
2022-12-03T12:14:04.015Z,49.60
2022-12-03T12:19:33.543Z,45.30
2022-12-03T12:24:43.712Z,48.90
2022-12-03T12:29:56.154Z,54.30
2022-12-03T12:35:18.809Z,44.30
2022-12-03T12:40:26.913Z,46.50
2022-12-03T12:45:37.945Z,40.90
2022-12-03T12:50:58.701Z,50.80
2022-12-03T12:56:11.474Z,53.40
2022-12-03T13:01:22.450Z,38.90
2022-12-03T13:06:32.009Z,52.10
2022-12-03T13:11:46.314Z,44.30
2022-12-03T13:16:52.576Z,55.00
2022-12-03T13:21:57.865Z,50.60
2022-12-03T13:27:20.694Z,56.50
2022-12-03T13:32:37.252Z,55.10
2022-12-03T13:37:40.567Z,60.80
2022-12-03T13:42:46.144Z,53.30
2022-12-03T13:47:53.435Z,56.50
2022-12-03T13:52:57.244Z,58.20
2022-12-03T13:58:00.274Z,61.30
2022-12-03T14:03:03.586Z,67.70
2022-12-03T14:08:06.665Z,50.00
2022-12-03T14:13:09.934Z,66.60
2022-12-03T14:18:13.321Z,43.70
2022-12-03T14:23:16.432Z,48.70
2022-12-03T14:28:19.638Z,46.50
2022-12-03T14:33:22.648Z,51.90
2022-12-03T14:38:25.863Z,58.60
2022-12-03T14:43:28.870Z,55.20
2022-12-03T14:48:31.975Z,51.30
2022-12-03T14:53:35.183Z,40.50
2022-12-03T14:58:38.692Z,50.10
2022-12-03T15:03:41.706Z,49.60
2022-12-03T15:08:45.121Z,47.60
2022-12-03T15:13:48.229Z,54.40
2022-12-03T15:18:51.465Z,45.60
2022-12-03T15:23:55.302Z,47.40
2022-12-03T15:28:58.384Z,52.30
2022-12-03T15:34:01.487Z,53.90
2022-12-03T15:39:04.671Z,33.20
2022-12-03T15:44:07.599Z,48.30
2022-12-03T15:49:10.605Z,44.10
2022-12-03T15:54:13.719Z,47.10
2022-12-03T15:59:16.830Z,40.50
2022-12-03T16:04:19.933Z,50.80
2022-12-03T16:09:27.136Z,53.00
2022-12-03T16:14:31.055Z,46.40
2022-12-03T16:19:34.583Z,45.50
2022-12-03T16:24:37.595Z,42.80
2022-12-03T16:29:40.705Z,52.40
2022-12-03T16:34:43.808Z,45.20
2022-12-03T16:39:47.227Z,46.70
2022-12-03T16:45:08.793Z,56.30
2022-12-03T16:50:19.852Z,42.40
2022-12-03T16:55:25.536Z,57.30
2022-12-03T17:00:29.049Z,44.40
2022-12-03T17:05:32.157Z,52.90
2022-12-03T17:10:36.064Z,56.50
2022-12-03T17:15:40.721Z,36.30
2022-12-03T17:20:43.945Z,53.40
2022-12-03T17:25:47.053Z,46.50
2022-12-03T17:30:50.361Z,51.40
2022-12-03T17:35:53.481Z,52.20
2022-12-03T17:40:56.698Z,49.80
2022-12-03T17:46:00.478Z,65.70
2022-12-03T17:51:03.932Z,54.10
2022-12-03T17:56:07.137Z,49.60
2022-12-03T18:01:10.770Z,58.60
2022-12-03T18:06:13.880Z,50.50
2022-12-03T18:11:17.183Z,63.60
2022-12-03T18:16:20.516Z,58.70
2022-12-03T18:21:23.807Z,43.70
2022-12-03T18:26:27.024Z,60.00
2022-12-03T18:31:30.297Z,61.80
2022-12-03T18:36:36.393Z,55.80
2022-12-03T18:41:40.267Z,54.70
2022-12-03T18:46:58.606Z,51.60
2022-12-03T18:52:02.639Z,59.00
2022-12-03T18:57:05.854Z,44.00
2022-12-03T19:02:38.421Z,51.30
2022-12-03T19:07:39.145Z,51.60
2022-12-03T19:12:42.513Z,58.10
2022-12-03T19:17:50.026Z,51.90
2022-12-03T19:22:53.238Z,55.10
2022-12-03T19:27:57.266Z,51.50
2022-12-03T19:33:00.381Z,40.70
2022-12-03T19:38:03.586Z,62.20
2022-12-03T19:43:06.694Z,50.20
2022-12-03T19:48:09.908Z,48.80
2022-12-03T19:53:13.014Z,60.80
2022-12-03T19:58:16.270Z,53.80
2022-12-03T20:03:19.337Z,57.60
2022-12-03T20:08:22.495Z,58.80
2022-12-03T20:13:25.552Z,58.70
2022-12-03T20:18:28.565Z,59.50
2022-12-03T20:23:31.877Z,55.10
2022-12-03T20:28:35.097Z,57.90
2022-12-03T20:33:38.395Z,63.70
2022-12-03T20:38:41.915Z,53.40
2022-12-03T20:43:45.652Z,64.80
2022-12-03T20:48:49.159Z,61.70
2022-12-03T20:53:52.460Z,57.20
2022-12-03T20:58:55.479Z,63.90
2022-12-03T21:03:58.904Z,61.70
2022-12-03T21:09:03.543Z,56.30
2022-12-03T21:14:06.747Z,67.00
2022-12-03T21:19:09.968Z,60.20
2022-12-03T21:24:13.991Z,66.30
2022-12-03T21:29:17.410Z,72.00
2022-12-03T21:34:20.827Z,68.30
2022-12-03T21:39:23.832Z,67.90
2022-12-03T21:44:27.142Z,69.40
2022-12-03T21:49:30.355Z,65.40
2022-12-03T21:54:33.362Z,67.60
2022-12-03T21:59:36.466Z,64.50
2022-12-03T22:04:40.193Z,65.90
2022-12-03T22:09:43.296Z,75.00
2022-12-03T22:14:46.312Z,69.90
2022-12-03T22:19:49.319Z,78.80
2022-12-03T22:24:52.527Z,79.80
2022-12-03T22:29:55.802Z,68.70
2022-12-03T22:34:59.255Z,72.10
2022-12-03T22:40:02.334Z,69.80
2022-12-03T22:45:06.496Z,79.50
2022-12-03T22:50:09.855Z,80.20
2022-12-03T22:55:12.918Z,80.10
2022-12-03T23:00:32.107Z,77.70
2022-12-03T23:05:39.386Z,79.70
2022-12-03T23:10:44.573Z,79.50
2022-12-03T23:15:52.592Z,74.10
2022-12-03T23:20:57.041Z,72.50
2022-12-03T23:26:02.816Z,62.20
2022-12-03T23:31:13.832Z,77.70
2022-12-03T23:36:17.306Z,64.90
2022-12-03T23:41:22.269Z,75.10
2022-12-03T23:46:27.407Z,83.50
2022-12-03T23:51:30.842Z,89.00
2022-12-03T23:56:33.844Z,91.20
